sensor_id;sensor_type;location;lat;lon;timestamp;pressure;altitude;pressure_sealevel;temperature;humidity
60307;BME280;46155;52.364;6.580;2024-01-30T04:02:35;102246.31;;;5.66;100.00
60307;BME280;46155;52.364;6.580;2024-01-30T04:05:00;102242.59;;;5.64;100.00
60307;BME280;46155;52.364;6.580;2024-01-30T04:07:25;102247.38;;;5.68;100.00
60307;BME280;46155;52.364;6.580;2024-01-30T04:09:51;102243.53;;;5.64;100.00
60307;BME280;46155;52.364;6.580;2024-01-30T04:12:16;102240.44;;;5.60;100.00
60307;BME280;46155;52.364;6.580;2024-01-30T04:14:41;102236.16;;;5.60;100.00
60307;BME280;46155;52.364;6.580;2024-01-30T04:17:07;102232.63;;;5.60;100.00
60307;BME280;46155;52.364;6.580;2024-01-30T04:19:32;102226.06;;;5.63;100.00
60307;BME280;46155;52.364;6.580;2024-01-30T04:21:57;102218.25;;;5.63;100.00
60307;BME280;46155;52.364;6.580;2024-01-30T04:24:22;102219.59;;;5.60;100.00
60307;BME280;46155;52.364;6.580;2024-01-30T04:26:48;102212.88;;;5.62;100.00
60307;BME280;46155;52.364;6.580;2024-01-30T04:29:13;102211.94;;;5.61;100.00
60307;BME280;46155;52.364;6.580;2024-01-30T04:31:39;102211.31;;;5.64;100.00
60307;BME280;46155;52.364;6.580;2024-01-30T04:34:04;102202.00;;;5.66;100.00
60307;BME280;46155;52.364;6.580;2024-01-30T04:36:29;102201.56;;;5.70;100.00
60307;BME280;46155;52.364;6.580;2024-01-30T04:38:54;102209.69;;;5.73;100.00
60307;BME280;46155;52.364;6.580;2024-01-30T04:41:20;102204.47;;;5.73;100.00
60307;BME280;46155;52.364;6.580;2024-01-30T04:43:45;102207.69;;;5.79;100.00
60307;BME280;46155;52.364;6.580;2024-01-30T04:46:11;102209.84;;;5.83;100.00
60307;BME280;46155;52.364;6.580;2024-01-30T04:48:36;102217.81;;;5.85;100.00
60307;BME280;46155;52.364;6.580;2024-01-30T04:51:02;102213.88;;;5.89;100.00
60307;BME280;46155;52.364;6.580;2024-01-30T04:53:30;102212.63;;;5.94;100.00
60307;BME280;46155;52.364;6.580;2024-01-30T04:55:55;102209.91;;;6.01;100.00
60307;BME280;46155;52.364;6.580;2024-01-30T04:58:21;102213.91;;;6.06;100.00
60307;BME280;46155;52.364;6.580;2024-01-30T05:00:46;102212.41;;;6.08;100.00
60307;BME280;46155;52.364;6.580;2024-01-30T05:03:16;102218.06;;;6.04;100.00
60307;BME280;46155;52.364;6.580;2024-01-30T05:05:42;102222.03;;;6.09;100.00
60307;BME280;46155;52.364;6.580;2024-01-30T05:08:08;102214.22;;;6.09;100.00
60307;BME280;46155;52.364;6.580;2024-01-30T05:10:33;102207.75;;;5.97;100.00
60307;BME280;46155;52.364;6.580;2024-01-30T05:12:58;102216.22;;;6.03;100.00
60307;BME280;46155;52.364;6.580;2024-01-30T05:15:23;102210.25;;;6.04;100.00
60307;BME280;46155;52.364;6.580;2024-01-30T05:17:49;102205.03;;;6.04;100.00
60307;BME280;46155;52.364;6.580;2024-01-30T05:20:14;102213.63;;;6.03;100.00
60307;BME280;46155;52.364;6.580;2024-01-30T05:22:39;102207.78;;;6.06;100.00
60307;BME280;46155;52.364;6.580;2024-01-30T05:25:10;102205.19;;;6.06;100.00
60307;BME280;46155;52.364;6.580;2024-01-30T05:27:35;102207.94;;;6.07;100.00
60307;BME280;46155;52.364;6.580;2024-01-30T05:30:00;102209.31;;;6.12;100.00
60307;BME280;46155;52.364;6.580;2024-01-30T05:32:25;102211.47;;;6.16;100.00
60307;BME280;46155;52.364;6.580;2024-01-30T05:34:51;102200.56;;;6.20;100.00
60307;BME280;46155;52.364;6.580;2024-01-30T05:37:16;102194.31;;;6.18;100.00
60307;BME280;46155;52.364;6.580;2024-01-30T05:39:43;102197.53;;;6.25;100.00
60307;BME280;46155;52.364;6.580;2024-01-30T05:42:08;102190.63;;;6.25;100.00
60307;BME280;46155;52.364;6.580;2024-01-30T05:44:33;102197.06;;;6.29;100.00
60307;BME280;46155;52.364;6.580;2024-01-30T05:46:58;102197.22;;;6.30;100.00
60307;BME280;46155;52.364;6.580;2024-01-30T05:49:24;102193.25;;;6.34;100.00
60307;BME280;46155;52.364;6.580;2024-01-30T05:51:49;102194.28;;;6.36;100.00
60307;BME280;46155;52.364;6.580;2024-01-30T05:54:14;102190.03;;;6.36;100.00
60307;BME280;46155;52.364;6.580;2024-01-30T05:56:40;102184.16;;;6.39;100.00
60307;BME280;46155;52.364;6.580;2024-01-30T05:59:05;102194.13;;;6.43;100.00
60307;BME280;46155;52.364;6.580;2024-01-30T06:01:30;102191.22;;;6.40;100.00
60307;BME280;46155;52.364;6.580;2024-01-30T06:03:55;102193.38;;;6.44;100.00
60307;BME280;46155;52.364;6.580;2024-01-30T06:06:21;102193.69;;;6.47;100.00
60307;BME280;46155;52.364;6.580;2024-01-30T06:08:46;102201.03;;;6.51;100.00
60307;BME280;46155;52.364;6.580;2024-01-30T06:11:11;102195.38;;;6.55;100.00
60307;BME280;46155;52.364;6.580;2024-01-30T06:13:37;102194.59;;;6.57;100.00
60307;BME280;46155;52.364;6.580;2024-01-30T06:16:02;102198.41;;;6.60;100.00
60307;BME280;46155;52.364;6.580;2024-01-30T06:18:28;102197.34;;;6.67;100.00
60307;BME280;46155;52.364;6.580;2024-01-30T06:20:55;102200.25;;;6.70;100.00
60307;BME280;46155;52.364;6.580;2024-01-30T06:23:20;102202.88;;;6.70;100.00
60307;BME280;46155;52.364;6.580;2024-01-30T06:25:46;102197.34;;;6.67;100.00
60307;BME280;46155;52.364;6.580;2024-01-30T06:28:11;102200.41;;;6.71;100.00
60307;BME280;46155;52.364;6.580;2024-01-30T06:30:36;102199.66;;;6.72;100.00
60307;BME280;46155;52.364;6.580;2024-01-30T06:33:02;102201.66;;;6.75;100.00
60307;BME280;46155;52.364;6.580;2024-01-30T06:35:27;102185.84;;;6.74;100.00
60307;BME280;46155;52.364;6.580;2024-01-30T06:37:54;102189.34;;;6.74;100.00
60307;BME280;46155;52.364;6.580;2024-01-30T06:40:19;102188.75;;;6.77;100.00
60307;BME280;46155;52.364;6.580;2024-01-30T06:42:44;102188.13;;;6.79;100.00
60307;BME280;46155;52.364;6.580;2024-01-30T06:45:10;102194.53;;;6.83;100.00
60307;BME280;46155;52.364;6.580;2024-01-30T06:47:35;102198.53;;;6.88;100.00
60307;BME280;46155;52.364;6.580;2024-01-30T06:50:00;102199.59;;;6.90;100.00
60307;BME280;46155;52.364;6.580;2024-01-30T06:52:27;102195.78;;;6.86;100.00
60307;BME280;46155;52.364;6.580;2024-01-30T06:54:52;102199.44;;;6.88;100.00
60307;BME280;46155;52.364;6.580;2024-01-30T06:57:18;102197.44;;;6.86;100.00
60307;BME280;46155;52.364;6.580;2024-01-30T06:59:43;102197.94;;;6.91;100.00
60307;BME280;46155;52.364;6.580;2024-01-30T07:02:11;102192.38;;;6.87;100.00
60307;BME280;46155;52.364;6.580;2024-01-30T07:04:37;102193.00;;;6.94;100.00
60307;BME280;46155;52.364;6.580;2024-01-30T07:07:03;102202.50;;;6.93;100.00
60307;BME280;46155;52.364;6.580;2024-01-30T07:09:30;102205.44;;;6.96;100.00
60307;BME280;46155;52.364;6.580;2024-01-30T07:11:55;102204.03;;;7.00;100.00
60307;BME280;46155;52.364;6.580;2024-01-30T07:14:23;102206.50;;;6.98;100.00
60307;BME280;46155;52.364;6.580;2024-01-30T07:16:49;102188.38;;;7.00;100.00
60307;BME280;46155;52.364;6.580;2024-01-30T07:19:15;102209.25;;;7.00;100.00
60307;BME280;46155;52.364;6.580;2024-01-30T07:21:40;102202.81;;;7.05;100.00
60307;BME280;46155;52.364;6.580;2024-01-30T07:24:06;102196.63;;;7.04;100.00
60307;BME280;46155;52.364;6.580;2024-01-30T07:26:31;102194.97;;;7.05;100.00
60307;BME280;46155;52.364;6.580;2024-01-30T07:28:57;102194.97;;;7.05;100.00
60307;BME280;46155;52.364;6.580;2024-01-30T07:31:22;102193.25;;;7.05;100.00
60307;BME280;46155;52.364;6.580;2024-01-30T07:33:48;102197.56;;;7.05;100.00
60307;BME280;46155;52.364;6.580;2024-01-30T07:36:13;102189.88;;;7.06;100.00
60307;BME280;46155;52.364;6.580;2024-01-30T07:38:39;102197.56;;;7.05;100.00
60307;BME280;46155;52.364;6.580;2024-01-30T07:41:05;102197.88;;;7.08;100.00
60307;BME280;46155;52.364;6.580;2024-01-30T07:43:30;102198.00;;;7.10;100.00
60307;BME280;46155;52.364;6.580;2024-01-30T07:45:56;102204.66;;;7.06;100.00
60307;BME280;46155;52.364;6.580;2024-01-30T07:48:21;102183.91;;;7.07;100.00
60307;BME280;46155;52.364;6.580;2024-01-30T07:50:47;102207.09;;;7.13;100.00
60307;BME280;46155;52.364;6.580;2024-01-30T07:53:12;102217.53;;;7.13;100.00
60307;BME280;46155;52.364;6.580;2024-01-30T07:55:37;102223.03;;;7.16;100.00
60307;BME280;46155;52.364;6.580;2024-01-30T07:58:03;102227.00;;;7.21;100.00
60307;BME280;46155;52.364;6.580;2024-01-30T08:00:30;102227.19;;;7.23;100.00
60307;BME280;46155;52.364;6.580;2024-01-30T08:02:55;102222.41;;;7.28;100.00
60307;BME280;46155;52.364;6.580;2024-01-30T08:05:21;102217.47;;;7.31;100.00
60307;BME280;46155;52.364;6.580;2024-01-30T08:07:48;102221.13;;;7.33;100.00
60307;BME280;46155;52.364;6.580;2024-01-30T08:10:14;102220.69;;;7.28;100.00
60307;BME280;46155;52.364;6.580;2024-01-30T08:12:39;102231.09;;;7.37;100.00
60307;BME280;46155;52.364;6.580;2024-01-30T08:15:05;102234.78;;;7.39;100.00
60307;BME280;46155;52.364;6.580;2024-01-30T08:17:30;102237.69;;;7.42;100.00
60307;BME280;46155;52.364;6.580;2024-01-30T08:19:56;102232.19;;;7.39;100.00
60307;BME280;46155;52.364;6.580;2024-01-30T08:22:21;102241.97;;;7.50;100.00
60307;BME280;46155;52.364;6.580;2024-01-30T08:24:46;102245.78;;;7.54;100.00
60307;BME280;46155;52.364;6.580;2024-01-30T08:27:12;102239.50;;;7.52;100.00
60307;BME280;46155;52.364;6.580;2024-01-30T08:29:37;102221.66;;;7.56;100.00
60307;BME280;46155;52.364;6.580;2024-01-30T08:32:04;102227.47;;;7.63;100.00
60307;BME280;46155;52.364;6.580;2024-01-30T08:34:30;102222.06;;;7.61;100.00
60307;BME280;46155;52.364;6.580;2024-01-30T08:36:55;102235.75;;;7.67;100.00
60307;BME280;46155;52.364;6.580;2024-01-30T08:39:20;102236.03;;;7.70;100.00
60307;BME280;46155;52.364;6.580;2024-01-30T08:41:46;102245.25;;;7.75;100.00
60307;BME280;46155;52.364;6.580;2024-01-30T08:44:11;102243.81;;;7.79;100.00
60307;BME280;46155;52.364;6.580;2024-01-30T08:46:37;102245.81;;;7.82;100.00
60307;BME280;46155;52.364;6.580;2024-01-30T08:49:02;102236.28;;;7.82;100.00
60307;BME280;46155;52.364;6.580;2024-01-30T08:51:29;102232.47;;;7.79;100.00
60307;BME280;46155;52.364;6.580;2024-01-30T08:53:54;102238.13;;;7.83;100.00
60307;BME280;46155;52.364;6.580;2024-01-30T08:56:20;102240.88;;;7.85;100.00
60307;BME280;46155;52.364;6.580;2024-01-30T08:58:45;102240.41;;;7.89;100.00
60307;BME280;46155;52.364;6.580;2024-01-30T09:01:10;102232.56;;;7.89;100.00
60307;BME280;46155;52.364;6.580;2024-01-30T09:03:36;102241.75;;;7.94;100.00
60307;BME280;46155;52.364;6.580;2024-01-30T09:06:08;102250.03;;;7.99;100.00
60307;BME280;46155;52.364;6.580;2024-01-30T09:08:33;102234.06;;;7.96;100.00
60307;BME280;46155;52.364;6.580;2024-01-30T09:10:59;102237.38;;;8.03;100.00
60307;BME280;46155;52.364;6.580;2024-01-30T09:13:24;102246.31;;;8.05;100.00
60307;BME280;46155;52.364;6.580;2024-01-30T09:15:49;102250.13;;;8.09;100.00
60307;BME280;46155;52.364;6.580;2024-01-30T09:18:14;102253.00;;;8.12;100.00
60307;BME280;46155;52.364;6.580;2024-01-30T09:20:40;102252.97;;;8.21;100.00
60307;BME280;46155;52.364;6.580;2024-01-30T09:23:05;102264.16;;;8.28;100.00
60307;BME280;46155;52.364;6.580;2024-01-30T09:25:30;102259.34;;;8.33;100.00
60307;BME280;46155;52.364;6.580;2024-01-30T09:27:56;102264.22;;;8.39;100.00
60307;BME280;46155;52.364;6.580;2024-01-30T09:30:21;102269.72;;;8.42;100.00
60307;BME280;46155;52.364;6.580;2024-01-30T09:32:47;102271.75;;;8.44;100.00
60307;BME280;46155;52.364;6.580;2024-01-30T09:35:12;102264.34;;;8.49;100.00
60307;BME280;46155;52.364;6.580;2024-01-30T09:37:37;102269.06;;;8.53;100.00
60307;BME280;46155;52.364;6.580;2024-01-30T09:40:03;102277.38;;;8.58;100.00
60307;BME280;46155;52.364;6.580;2024-01-30T09:42:35;102270.41;;;8.58;100.00
60307;BME280;46155;52.364;6.580;2024-01-30T09:45:02;102278.41;;;8.60;100.00
60307;BME280;46155;52.364;6.580;2024-01-30T09:47:40;102278.53;;;8.61;100.00
60307;BME280;46155;52.364;6.580;2024-01-30T09:50:07;102282.25;;;8.64;100.00
60307;BME280;46155;52.364;6.580;2024-01-30T09:52:33;102284.88;;;8.64;100.00
60307;BME280;46155;52.364;6.580;2024-01-30T09:54:59;102274.81;;;8.68;100.00
60307;BME280;46155;52.364;6.580;2024-01-30T09:57:25;102277.06;;;8.74;100.00
60307;BME280;46155;52.364;6.580;2024-01-30T09:59:51;102266.38;;;8.81;100.00
60307;BME280;46155;52.364;6.580;2024-01-30T10:02:17;102272.75;;;8.93;100.00
60307;BME280;46155;52.364;6.580;2024-01-30T10:04:44;102269.75;;;8.99;100.00
60307;BME280;46155;52.364;6.580;2024-01-30T10:07:10;102270.16;;;9.04;100.00
60307;BME280;46155;52.364;6.580;2024-01-30T10:09:36;102271.78;;;9.12;100.00
60307;BME280;46155;52.364;6.580;2024-01-30T10:12:02;102263.28;;;9.15;100.00
60307;BME280;46155;52.364;6.580;2024-01-30T10:14:29;102267.31;;;9.11;100.00
60307;BME280;46155;52.364;6.580;2024-01-30T10:16:55;102267.06;;;9.18;100.00
60307;BME280;46155;52.364;6.580;2024-01-30T10:19:20;102250.59;;;9.19;100.00
60307;BME280;46155;52.364;6.580;2024-01-30T10:21:46;102258.44;;;9.19;100.00
60307;BME280;46155;52.364;6.580;2024-01-30T10:24:11;102257.94;;;9.23;100.00
60307;BME280;46155;52.364;6.580;2024-01-30T10:26:39;102258.88;;;9.34;100.00
60307;BME280;46155;52.364;6.580;2024-01-30T10:29:04;102262.97;;;9.41;100.00
60307;BME280;46155;52.364;6.580;2024-01-30T10:31:30;102262.19;;;9.42;100.00
60307;BME280;46155;52.364;6.580;2024-01-30T10:33:55;102264.72;;;9.51;100.00
60307;BME280;46155;52.364;6.580;2024-01-30T10:36:26;102264.34;;;9.56;100.00
60307;BME280;46155;52.364;6.580;2024-01-30T10:38:55;102263.31;;;9.64;100.00
60307;BME280;46155;52.364;6.580;2024-01-30T10:41:26;102261.06;;;9.69;100.00
60307;BME280;46155;52.364;6.580;2024-01-30T10:44:02;102261.47;;;9.74;100.00
60307;BME280;46155;52.364;6.580;2024-01-30T10:46:33;102270.69;;;9.79;100.00
60307;BME280;46155;52.364;6.580;2024-01-30T10:49:00;102266.50;;;9.81;100.00
60307;BME280;46155;52.364;6.580;2024-01-30T10:51:28;102256.28;;;9.84;100.00
60307;BME280;46155;52.364;6.580;2024-01-30T10:53:55;102254.81;;;9.88;100.00
60307;BME280;46155;52.364;6.580;2024-01-30T10:56:21;102267.53;;;9.93;100.00
60307;BME280;46155;52.364;6.580;2024-01-30T10:58:49;102262.84;;;9.99;100.00
60307;BME280;46155;52.364;6.580;2024-01-30T11:01:14;102264.28;;;10.06;100.00
60307;BME280;46155;52.364;6.580;2024-01-30T11:03:41;102255.50;;;10.06;100.00
60307;BME280;46155;52.364;6.580;2024-01-30T11:06:10;102271.25;;;10.06;100.00
60307;BME280;46155;52.364;6.580;2024-01-30T11:08:36;102272.56;;;10.11;100.00
60307;BME280;46155;52.364;6.580;2024-01-30T11:11:01;102275.44;;;10.14;100.00
60307;BME280;46155;52.364;6.580;2024-01-30T11:13:29;102278.97;;;10.14;100.00
60307;BME280;46155;52.364;6.580;2024-01-30T11:15:55;102276.47;;;10.16;100.00
60307;BME280;46155;52.364;6.580;2024-01-30T11:18:24;102275.56;;;10.26;100.00
60307;BME280;46155;52.364;6.580;2024-01-30T11:20:50;102269.78;;;10.30;100.00
60307;BME280;46155;52.364;6.580;2024-01-30T11:23:15;102273.31;;;10.30;100.00
60307;BME280;46155;52.364;6.580;2024-01-30T11:25:43;102279.38;;;10.29;100.00
60307;BME280;46155;52.364;6.580;2024-01-30T11:28:14;102280.94;;;10.27;100.00
60307;BME280;46155;52.364;6.580;2024-01-30T11:30:43;102266.53;;;10.22;100.00
60307;BME280;46155;52.364;6.580;2024-01-30T11:33:13;102279.13;;;10.26;100.00
60307;BME280;46155;52.364;6.580;2024-01-30T11:35:41;102277.81;;;10.21;100.00
60307;BME280;46155;52.364;6.580;2024-01-30T11:38:08;102283.72;;;10.19;100.00
60307;BME280;46155;52.364;6.580;2024-01-30T11:40:35;102281.72;;;10.16;100.00
60307;BME280;46155;52.364;6.580;2024-01-30T11:43:02;102274.66;;;10.15;100.00
60307;BME280;46155;52.364;6.580;2024-01-30T11:45:28;102270.97;;;10.13;100.00
60307;BME280;46155;52.364;6.580;2024-01-30T11:47:54;102276.34;;;10.14;100.00
60307;BME280;46155;52.364;6.580;2024-01-30T11:50:19;102279.38;;;10.19;100.00
60307;BME280;46155;52.364;6.580;2024-01-30T11:52:45;102275.19;;;10.21;100.00
60307;BME280;46155;52.364;6.580;2024-01-30T11:55:10;102276.63;;;10.28;100.00
60307;BME280;46155;52.364;6.580;2024-01-30T11:57:36;102276.25;;;10.33;100.00
60307;BME280;46155;52.364;6.580;2024-01-30T12:00:05;102271.16;;;10.35;100.00
60307;BME280;46155;52.364;6.580;2024-01-30T12:02:36;102266.16;;;10.38;100.00
60307;BME280;46155;52.364;6.580;2024-01-30T12:05:08;102268.13;;;10.41;100.00
60307;BME280;46155;52.364;6.580;2024-01-30T12:07:34;102273.88;;;10.47;100.00
60307;BME280;46155;52.364;6.580;2024-01-30T12:10:00;102262.59;;;10.48;100.00
60307;BME280;46155;52.364;6.580;2024-01-30T12:12:27;102269.16;;;10.53;100.00
60307;BME280;46155;52.364;6.580;2024-01-30T12:14:53;102263.91;;;10.53;100.00
60307;BME280;46155;52.364;6.580;2024-01-30T12:17:30;102272.97;;;10.57;100.00
60307;BME280;46155;52.364;6.580;2024-01-30T12:22:44;102269.94;;;10.62;100.00
60307;BME280;46155;52.364;6.580;2024-01-30T12:25:11;102269.81;;;10.61;100.00
60307;BME280;46155;52.364;6.580;2024-01-30T12:27:37;102266.53;;;10.63;100.00
60307;BME280;46155;52.364;6.580;2024-01-30T12:30:10;102280.94;;;10.68;100.00
60307;BME280;46155;52.364;6.580;2024-01-30T12:32:37;102262.56;;;10.68;100.00
60307;BME280;46155;52.364;6.580;2024-01-30T12:35:03;102275.81;;;10.70;100.00
60307;BME280;46155;52.364;6.580;2024-01-30T12:37:29;102277.41;;;10.68;100.00
60307;BME280;46155;52.364;6.580;2024-01-30T12:39:55;102282.28;;;10.63;100.00
60307;BME280;46155;52.364;6.580;2024-01-30T12:42:21;102287.13;;;10.59;100.00
60307;BME280;46155;52.364;6.580;2024-01-30T12:44:49;102287.91;;;10.68;100.00
60307;BME280;46155;52.364;6.580;2024-01-30T12:47:14;102294.88;;;10.67;100.00
60307;BME280;46155;52.364;6.580;2024-01-30T12:49:44;102282.00;;;10.71;100.00
60307;BME280;46155;52.364;6.580;2024-01-30T12:52:11;102293.94;;;10.67;100.00
60307;BME280;46155;52.364;6.580;2024-01-30T12:54:37;102296.69;;;10.68;100.00
60307;BME280;46155;52.364;6.580;2024-01-30T12:57:02;102291.44;;;10.68;100.00
60307;BME280;46155;52.364;6.580;2024-01-30T12:59:28;102294.19;;;10.70;100.00
60307;BME280;46155;52.364;6.580;2024-01-30T13:01:53;102286.19;;;10.68;100.00
60307;BME280;46155;52.364;6.580;2024-01-30T13:04:19;102288.16;;;10.71;100.00
60307;BME280;46155;52.364;6.580;2024-01-30T13:06:44;102296.06;;;10.71;100.00
60307;BME280;46155;52.364;6.580;2024-01-30T13:09:09;102296.44;;;10.76;100.00
60307;BME280;46155;52.364;6.580;2024-01-30T13:11:35;102281.47;;;10.75;100.00
60307;BME280;46155;52.364;6.580;2024-01-30T13:14:01;102296.31;;;10.74;100.00
60307;BME280;46155;52.364;6.580;2024-01-30T13:16:26;102293.69;;;10.74;100.00
60307;BME280;46155;52.364;6.580;2024-01-30T13:18:51;102287.50;;;10.74;100.00
60307;BME280;46155;52.364;6.580;2024-01-30T13:21:16;102299.06;;;10.76;100.00
60307;BME280;46155;52.364;6.580;2024-01-30T13:23:42;102300.91;;;10.77;100.00
60307;BME280;46155;52.364;6.580;2024-01-30T13:26:08;102300.78;;;10.75;100.00
60307;BME280;46155;52.364;6.580;2024-01-30T13:28:33;102300.66;;;10.74;100.00
60307;BME280;46155;52.364;6.580;2024-01-30T13:30:58;102300.41;;;10.71;100.00
60307;BME280;46155;52.364;6.580;2024-01-30T13:33:24;102300.16;;;10.67;100.00
60307;BME280;46155;52.364;6.580;2024-01-30T13:35:50;102302.59;;;10.66;100.00
60307;BME280;46155;52.364;6.580;2024-01-30T13:38:15;102303.56;;;10.66;100.00
60307;BME280;46155;52.364;6.580;2024-01-30T13:40:40;102292.78;;;10.63;100.00
60307;BME280;46155;52.364;6.580;2024-01-30T13:43:06;102305.91;;;10.53;100.00
60307;BME280;46155;52.364;6.580;2024-01-30T13:45:31;102312.75;;;10.41;100.00
60307;BME280;46155;52.364;6.580;2024-01-30T13:47:56;102300.38;;;10.29;100.00
60307;BME280;46155;52.364;6.580;2024-01-30T13:50:22;102303.91;;;10.30;100.00
60307;BME280;46155;52.364;6.580;2024-01-30T13:52:47;102315.88;;;10.26;100.00
60307;BME280;46155;52.364;6.580;2024-01-30T13:55:13;102303.25;;;10.12;100.00
60307;BME280;46155;52.364;6.580;2024-01-30T13:57:38;102317.03;;;10.09;100.00
60307;BME280;46155;52.364;6.580;2024-01-30T14:00:04;102322.94;;;10.07;100.00
60307;BME280;46155;52.364;6.580;2024-01-30T14:02:32;102326.34;;;10.06;100.00
60307;BME280;46155;52.364;6.580;2024-01-30T14:04:58;102333.19;;;10.04;100.00
60307;BME280;46155;52.364;6.580;2024-01-30T14:07:23;102337.34;;;10.02;100.00
60307;BME280;46155;52.364;6.580;2024-01-30T14:09:49;102348.34;;;9.97;100.00
60307;BME280;46155;52.364;6.580;2024-01-30T14:12:15;102344.44;;;9.92;100.00
60307;BME280;46155;52.364;6.580;2024-01-30T14:14:40;102343.88;;;9.86;100.00
60307;BME280;46155;52.364;6.580;2024-01-30T14:17:06;102350.13;;;9.78;100.00
60307;BME280;46155;52.364;6.580;2024-01-30T14:19:35;102360.09;;;9.72;100.00
60307;BME280;46155;52.364;6.580;2024-01-30T14:22:01;102365.06;;;9.69;100.00
60307;BME280;46155;52.364;6.580;2024-01-30T14:24:26;102366.34;;;9.63;100.00
60307;BME280;46155;52.364;6.580;2024-01-30T14:26:52;102368.28;;;9.56;100.00
60307;BME280;46155;52.364;6.580;2024-01-30T14:29:17;102365.25;;;9.51;100.00
60307;BME280;46155;52.364;6.580;2024-01-30T14:31:43;102362.22;;;9.46;100.00
60307;BME280;46155;52.364;6.580;2024-01-30T14:34:08;102373.56;;;9.37;100.00
60307;BME280;46155;52.364;6.580;2024-01-30T14:36:36;102368.03;;;9.34;100.00
60307;BME280;46155;52.364;6.580;2024-01-30T14:39:01;102377.50;;;9.32;100.00
60307;BME280;46155;52.364;6.580;2024-01-30T14:41:28;102363.03;;;9.26;100.00
60307;BME280;46155;52.364;6.580;2024-01-30T14:43:53;102365.94;;;9.29;100.00
60307;BME280;46155;52.364;6.580;2024-01-30T14:46:19;102369.63;;;9.32;100.00
60307;BME280;46155;52.364;6.580;2024-01-30T14:48:44;102374.16;;;9.24;100.00
60307;BME280;46155;52.364;6.580;2024-01-30T14:51:09;102374.50;;;9.18;100.00
60307;BME280;46155;52.364;6.580;2024-01-30T14:53:35;102373.19;;;9.13;100.00
60307;BME280;46155;52.364;6.580;2024-01-30T14:56:00;102380.25;;;9.14;100.00
60307;BME280;46155;52.364;6.580;2024-01-30T14:58:27;102394.28;;;9.15;100.00
60307;BME280;46155;52.364;6.580;2024-01-30T15:00:53;102385.84;;;9.08;100.00
60307;BME280;46155;52.364;6.580;2024-01-30T15:03:18;102389.75;;;9.03;100.00
60307;BME280;46155;52.364;6.580;2024-01-30T15:05:44;102385.44;;;9.04;100.00
60307;BME280;46155;52.364;6.580;2024-01-30T15:08:09;102390.25;;;8.99;100.00
60307;BME280;46155;52.364;6.580;2024-01-30T15:10:35;102393.22;;;8.93;100.00
60307;BME280;46155;52.364;6.580;2024-01-30T15:13:00;102394.47;;;8.88;100.00
60307;BME280;46155;52.364;6.580;2024-01-30T15:15:25;102399.09;;;8.91;100.00
60307;BME280;46155;52.364;6.580;2024-01-30T15:17:51;102397.94;;;8.78;100.00
60307;BME280;46155;52.364;6.580;2024-01-30T15:20:16;102404.13;;;8.79;100.00
60307;BME280;46155;52.364;6.580;2024-01-30T15:22:43;102408.13;;;8.75;100.00
60307;BME280;46155;52.364;6.580;2024-01-30T15:25:10;102416.00;;;8.75;100.00
60307;BME280;46155;52.364;6.580;2024-01-30T15:27:36;102416.47;;;8.71;100.00
60307;BME280;46155;52.364;6.580;2024-01-30T15:30:01;102421.78;;;8.63;100.00
60307;BME280;46155;52.364;6.580;2024-01-30T15:32:26;102415.66;;;8.53;100.00
60307;BME280;46155;52.364;6.580;2024-01-30T15:34:52;102430.09;;;8.58;100.00
60307;BME280;46155;52.364;6.580;2024-01-30T15:37:18;102422.16;;;8.48;100.00
60307;BME280;46155;52.364;6.580;2024-01-30T15:39:43;102423.34;;;8.52;100.00
60307;BME280;46155;52.364;6.580;2024-01-30T15:42:09;102429.81;;;8.55;100.00
60307;BME280;46155;52.364;6.580;2024-01-30T15:44:34;102429.25;;;8.49;100.00
60307;BME280;46155;52.364;6.580;2024-01-30T15:46:59;102425.84;;;8.50;100.00
60307;BME280;46155;52.364;6.580;2024-01-30T15:49:25;102429.88;;;8.47;100.00
60307;BME280;46155;52.364;6.580;2024-01-30T15:51:51;102425.56;;;8.38;100.00
60307;BME280;46155;52.364;6.580;2024-01-30T15:54:16;102447.13;;;8.36;100.00
60307;BME280;46155;52.364;6.580;2024-01-30T15:56:42;102450.06;;;8.30;100.00
60307;BME280;46155;52.364;6.580;2024-01-30T15:59:08;102457.78;;;8.28;100.00
60307;BME280;46155;52.364;6.580;2024-01-30T16:01:33;102458.53;;;8.27;100.00
60307;BME280;46155;52.364;6.580;2024-01-30T16:03:59;102464.06;;;8.31;100.00
60307;BME280;46155;52.364;6.580;2024-01-30T16:06:24;102465.91;;;8.32;100.00
60307;BME280;46155;52.364;6.580;2024-01-30T16:08:49;102473.47;;;8.28;100.00
60307;BME280;46155;52.364;6.580;2024-01-30T16:11:16;102479.22;;;8.16;100.00
60307;BME280;46155;52.364;6.580;2024-01-30T16:13:42;102479.50;;;8.19;100.00
60307;BME280;46155;52.364;6.580;2024-01-30T16:16:08;102479.66;;;8.20;100.00
60307;BME280;46155;52.364;6.580;2024-01-30T16:18:33;102488.25;;;8.19;100.00
60307;BME280;46155;52.364;6.580;2024-01-30T16:20:59;102490.75;;;8.09;100.00
60307;BME280;46155;52.364;6.580;2024-01-30T16:23:25;102491.84;;;8.11;100.00
60307;BME280;46155;52.364;6.580;2024-01-30T16:25:52;102491.53;;;8.08;100.00
60307;BME280;46155;52.364;6.580;2024-01-30T16:28:17;102501.22;;;8.09;100.00
60307;BME280;46155;52.364;6.580;2024-01-30T16:30:43;102498.16;;;8.04;100.00
60307;BME280;46155;52.364;6.580;2024-01-30T16:33:08;102508.50;;;8.03;100.00
60307;BME280;46155;52.364;6.580;2024-01-30T16:35:34;102506.81;;;7.95;100.00
60307;BME280;46155;52.364;6.580;2024-01-30T16:38:00;102512.03;;;7.95;100.00
60307;BME280;46155;52.364;6.580;2024-01-30T16:40:25;102513.41;;;8.00;100.00
60307;BME280;46155;52.364;6.580;2024-01-30T16:42:50;102517.88;;;7.92;100.00
60307;BME280;46155;52.364;6.580;2024-01-30T16:45:16;102518.50;;;7.81;100.00